Tiempo atmosférico en la estación meteorológica de Gran Canaria Aeropuerto, Las Palmas (24 m.)



Fecha
DESCASC
Temp. máxima en grados centígrados (hora)
DESCASC
Temp. mínima en grados centígrados (hora)
DESCASC
Temp. media en grados centígrados
DESCASC
Racha de viento máxima en m/sg (hora)
DESCASC
Velocidad máxima media en intervalos de 10 minutos(hora)
DESCASC
Precipitaciones diarias en mm
DESCASC
Precipitaciones de 00:00 a 06:00 en mm
DESCASC
Precipitaciones de 06:00 a 12:00 en mm
DESCASC
Precipitaciones de 12:00 a 18:00 en mm
DESCASC
Precipitaciones de 18:00 a 24:00 en mm
DESCASC
13-10-2019 25.4 (14:50) 20 (07:40) 22.7 6.67 (00:20) 5.28 (00:20) 0 0 0 0 0
12-10-2019 25.6 (13:40) 20 (06:00) 22.8 9.72 (17:40) 8.06 (18:00) 0 0 0 0 0
11-10-2019 26 (13:00) 19.1 (04:50) 22.6 12.78 (17:00) 10.56 (17:00) 0 0 0 0 0
10-10-2019 26 (14:20) 20.7 (00:00) 23.4 11.39 (10:40) 9.17 (16:00) 0 0 0 0 0
09-10-2019 26.3 (14:10) 20.9 (00:00) 23.6 16.11 (12:10) 12.5 (13:30) 0 0 0 0 0
08-10-2019 25.8 (15:10) 21.3 (00:00) 23.5 15.28 (11:40) 12.78 (13:10) 0 0 0 0 0
07-10-2019 26 (15:00) 21.6 (00:00) 23.8 13.33 (16:00) 10.56 (17:40) 0 0 0 0 0
06-10-2019 26.3 (14:50) 21.7 (00:00) 24 15.28 (15:00) 12.78 (15:00) 0 0 0 0 0
05-10-2019 27 (14:00) 22 (00:00) 24.5 18.61 (15:10) 14.17 (15:00) 0 0 0 0 0
04-10-2019 26.9 (14:00) 21.7 (00:00) 24.3 18.61 (13:30) 13.33 (16:00) 0 0 0 0 0
03-10-2019 27.3 (13:20) 22.3 (00:00) 24.8 16.39 (15:30) 13.33 (16:10) 0 0 0 0 0
02-10-2019 27.6 (16:00) 21.9 (00:00) 24.8 12.78 (03:20) 9.72 (12:10) 0 0 0 0 0
01-10-2019 29.3 (15:30) 21.7 (00:00) 25.5 13.89 (11:30) 11.11 (11:30) 0 0 0 0 0
30-09-2019 27.8 (12:40) 21.2 (00:00) 24.5 16.11 (18:40) 11.94 (16:20) 0 0 0 0 0
29-09-2019 26.7 (15:20) 21.7 (00:00) 24.2 15.28 (22:50) 11.11 (11:20) 0 0 0 0 0
28-09-2019 26.3 (13:00) 21.1 (00:00) 23.7 14.44 (14:50) 11.39 (14:20) 0 0 0 0 0
27-09-2019 26.5 (13:40) 21.9 (00:00) 24.2 15.28 (14:10) 12.5 (13:30) 0 0 0 0 0
26-09-2019 27 (14:20) 22 (00:00) 24.5 15.28 (13:00) 12.22 (14:20) 0 0 0 0 0
25-09-2019 27.1 (15:10) 21.4 (00:00) 24.3 18.06 (13:20) 13.33 (14:20) 0 0 0 0 0
24-09-2019 27.2 (14:40) 21.5 (00:00) 24.4 16.94 (12:30) 13.89 (16:50) 0 0 0 0 0
23-09-2019 26.9 (14:00) 21.6 (00:00) 24.3 15.28 (14:10) 13.06 (16:30) 0 0 0 0 0
22-09-2019 28.4 (16:20) 20.7 (00:00) 24.6 13.33 (15:10) 11.11 (15:10) 0 0 0 0 0
21-09-2019 26.5 (14:10) 19.9 (00:00) 23.2 11.67 (13:30) 10 (18:00) 0 0 0 0 0
20-09-2019 26.8 (14:50) 21.2 (00:00) 24 14.44 (16:30) 12.22 (16:20) 0 0 0 0 0
19-09-2019 27.2 (15:00) 21.3 (00:00) 24.3 15.28 (12:50) 12.22 (13:10) 0 0 0 0 0
18-09-2019 26.4 (14:10) 21.4 (00:00) 23.9 13.89 (12:40) 11.39 (13:50) 0 0 0 0 0
17-09-2019 25.9 (13:20) 21.7 (00:00) 23.8 14.44 (15:00) 11.67 (13:20) 0 0 0 0 0
16-09-2019 -- (--) -- (--) -- -- (--) -- (--) -- 1.4 0 -- 0

Gráficas

Temp. máximas Temp. mínimas Temp. medias Precipitaciones Rachas de viento máximas Velocidades máximas media en intervalos de 10 minutos

Datos horarios

Fecha y hora oficial Temperatura (ºC) Velocidad del viento (km/h) Dirección del viento Racha (km/h) Dirección de racha Precipitación (mm) Presión (hPa) Tendencia (hPa) Humedad (%)
2019-10-15 23:00:00 21.7 23 Norte 33 Norte 0 1016.1 0.7 67
2019-10-15 22:00:00 21.9 23 Norte 30 Norte 0 1016.3 1.3 68
2019-10-15 21:00:00 22 19 Norte 30 Norte 0 1015.8 1.1 65
2019-10-15 20:00:00 21.9 22 Norte 33 Norte 0 1015.4 0.9 64
2019-10-15 19:00:00 22.1 24 Norte 39 Norte 0 1015 0.6 62
2019-10-15 18:00:00 22.7 28 Norte 39 Norte 0 1014.7 -0.4 57
2019-10-15 17:00:00 23.6 30 Norte 42 Nordeste 0 1014.5 -1.9 54
2019-10-15 16:00:00 23.9 34 Nordeste 42 Nordeste 0 1014.4 -2.4 56
2019-10-15 15:00:00 23 22 Nordeste 30 Nordeste 0 1015.1 -2 64
2019-10-15 14:00:00 22.7 20 Nordeste 30 Nordeste 0 1016.4 -0.4 66
2019-10-15 13:00:00 23.9 21 Nordeste 30 Nordeste 0 1016.8 0.4 63
2019-10-15 12:00:00 24.4 21 Norte 33 Nordeste 0 1017.1 1.2 60
2019-10-15 11:00:00 23.5 24 Norte 32 Norte 0 1016.8 1.3 60
2019-10-15 10:00:00 23 24 Norte 32 Norte 0 1016.4 1 61
2019-10-15 09:00:00 22.1 23 Norte 30 Norte 0 1015.9 0.9 64
2019-10-15 08:00:00 20.6 14 Norte 24 Norte 0 1015.5 0.6 75
2019-10-15 07:00:00 20.7 18 Norte 32 Norte 0 1015.4 0.3 77
2019-10-15 06:00:00 20.9 13 Norte 21 Norte 0 1015 -0.4 73
2019-10-15 05:00:00 20.8 15 Norte 32 Norte 0 1014.9 -0.9 74
2019-10-15 04:00:00 21 21 Norte 32 Norte 0 1015.1 -1.2 73
2019-10-15 03:00:00 20.9 19 Norte 32 Norte 0 1015.4 -1.3 72
2019-10-15 02:00:00 20.8 19 Norte 30 Norte 0 1015.8 -0.7 72
2019-10-15 01:00:00 20.9 19 Norte 30 Norte 0 1016.3 -0.1 71
2019-10-15 00:00:00 21 19 Norte 32 Norte 0 1016.7 1.2 70
2019-10-14 23:00:00 21.1 19 Norte 30 Noroeste 0 1016.5 1.4 67
2019-10-14 22:00:00 21.1 15 Norte 30 Norte 0 1016.4 2 69
2019-10-14 21:00:00 21.5 20 Norte 33 Norte 0 1015.5 1.2 69
2019-10-14 20:00:00 22 22 Norte 39 Norte 0 1015.1 0.3 67
2019-10-14 19:00:00 22.9 23 Norte 45 Norte 0 1014.4 -0.5 59
2019-10-14 18:00:00 23.2 31 Norte 52 Norte 0 1014.3 -0.7 63
2019-10-14 17:00:00 24.2 35 Norte 50 Norte 0 1014.8 -0.4 61
2019-10-14 16:00:00 24.9 37 Norte 50 Norte 0 1014.9 -1.2 58
2019-10-14 15:00:00 24.9 38 Norte 52 Nordeste 0 1015 -1.2 59
2019-10-14 14:00:00 25.2 39 Norte 48 Norte 0 1015.2 -0.5 57
2019-10-14 13:00:00 24.8 35 Norte 46 Norte 0 1016.1 0.7 59
2019-10-14 12:00:00 23.8 28 Norte 42 Norte 0 1016.2 1.7 64
2019-10-14 11:00:00 23.9 31 Norte 41 Norte 0 1015.7 1.7 64
2019-10-14 10:00:00 23.1 28 Norte 46 Norte 0 1015.4 1.9 67
2019-10-14 09:00:00 21.6 21 Norte 35 Norte 0 1014.5 1.3 74
2019-10-14 08:00:00 21.1 17 Norte 32 Norte 0 1014 0.9 77
2019-10-14 07:00:00 20.8 21 Norte 33 Norte 0 1013.5 0.6 76
2019-10-14 06:00:00 20.7 15 Norte 24 Norte 0 1013.2 0.1 72
2019-10-14 05:00:00 20.4 12 Norte 28 Norte 0 1013.1 -0.4 74
2019-10-14 04:00:00 20.3 16 Norte 22 Norte 0 1012.9 -1 72
2019-10-14 03:00:00 20 12 Norte 18 Norte 0 1013.1 -0.9 67
2019-10-14 02:00:00 19.8 12 Norte 15 Norte 0 1013.5 -0.5 67
2019-10-14 01:00:00 19.9 12 Norte 17 Norte 0 1013.9 0.2 65
2019-10-14 00:00:00 20.1 9 Norte 13 Noroeste 0 1014 1 65
2019-10-13 23:00:00 20.9 9 Noroeste 11 Noroeste 0 1014 1.4 68
2019-10-13 22:00:00 20.9 7 Noroeste 9 Noroeste 0 1013.7 1.4 67
2019-10-13 21:00:00 22 6 Norte 17 Norte 0 1013 1 69
2019-10-13 20:00:00 22.4 8 Nordeste 17 Nordeste 0 1012.6 0.9 66
2019-10-13 19:00:00 23 10 Nordeste 18 Nordeste 0 1012.3 0.8 63
2019-10-13 18:00:00 23.4 14 Nordeste 24 Nordeste 0 1012 0.7 61
2019-10-13 17:00:00 23.6 12 Este 21 Este 0 1011.7 0.3 60
2019-10-13 16:00:00 23.3 7 Este 18 Este 0 1011.5 -0.1 62
2019-10-13 15:00:00 24.8 14 Este 24 Nordeste 0 1011.3 -0.5 53
2019-10-13 14:00:00 24.9 13 Este 24 Este 0 1011.4 0 51
2019-10-13 13:00:00 24.8 14 Este 22 Este 0 1011.6 0.4 51
2019-10-13 12:00:00 24.4 14 Este 24 Este 0 1011.8 1 51
2019-10-13 11:00:00 24.2 12 Nordeste 22 Este 0 1011.4 0.8 50
2019-10-13 10:00:00 22.9 9 Norte 15 Norte 0 1011.2 0.9 53
2019-10-13 09:00:00 21 10 Noroeste 17 Noroeste 0 1010.8 1.1 60
2019-10-13 08:00:00 20.3 12 Noroeste 17 Noroeste 0 1010.6 0.9 62
2019-10-13 07:00:00 20.6 8 Noroeste 11 Noroeste 0 1010.3 0.4 63
2019-10-13 06:00:00 21 3 Norte 8 Norte 0 1009.7 -0.5 66
2019-10-13 05:00:00 21.3 6 Noroeste 8 Noroeste 0 1009.7 -1.1 66
2019-10-13 04:00:00 21.4 5 Noroeste 9 Noroeste 0 1009.9 -1.1 67
2019-10-13 03:00:00 21.5 8 Norte 13 Norte 0 1010.2 -1 70
2019-10-13 02:00:00 21.5 8 Noroeste 17 Norte 0 1010.8 -0.5 72
2019-10-13 01:00:00 21.6 11 Norte 24 Norte 0 1011 0.1 72
2019-10-13 00:00:00 22.1 18 Norte 24 Norte 0 1011.2 1 72
2019-10-12 23:00:00 22.1 15 Norte 24 Norte 0 1011.3 1.4 72
2019-10-12 22:00:00 22.2 15 Norte 28 Norte 0 1010.9 1.1 70
2019-10-12 21:00:00 22.4 16 Norte 32 Norte 0 1010.2 0.4 71
2019-10-12 20:00:00 22.8 24 Norte 35 Norte 0 1009.9 0 70
2019-10-12 19:00:00 23.1 26 Norte 35 Nordeste 0 1009.8 -0.1 66
2019-10-12 18:00:00 23.9 29 Norte 35 Norte 0 1009.8 -0.5 64
2019-10-12 17:00:00 23.9 23 Norte 32 Norte 0 1009.9 -1 62
2019-10-12 16:00:00 24.1 21 Nordeste 30 Nordeste 0 1009.9 -2 63
2019-10-12 15:00:00 24.8 21 Nordeste 33 Nordeste 0 1010.3 -1.9 61
2019-10-12 14:00:00 24.8 22 Nordeste 33 Nordeste 0 1010.9 -1.5 61
2019-10-12 13:00:00 25.1 21 Nordeste 33 Nordeste 0 1011.9 0 60
2019-10-12 12:00:00 24.6 22 Nordeste 32 Nordeste 0 1012.2 0.8 63
2019-10-12 11:00:00 24.3 23 Nordeste 32 Norte 0 1012.4 1.4 61
2019-10-12 10:00:00 23.3 24 Norte 30 Nordeste 0 1011.9 1 65
2019-10-12 09:00:00 22 12 Norte 21 Norte 0 1011.4 0.7 68
2019-10-12 08:00:00 20.8 9 Norte 15 Noroeste 0 1011 0.3 71
2019-10-12 07:00:00 20.1 9 Norte 17 Norte 0 1010.9 -0.1 76
2019-10-12 06:00:00 20 9 Norte 15 Norte 0 1010.7 -0.7 78
2019-10-12 05:00:00 21.1 10 Norte 30 Norte 0 1010.7 -1.1 76
2019-10-12 04:00:00 21.6 16 Norte 26 Nordeste 0 1011 -1.1 74
2019-10-12 03:00:00 20.9 12 Norte 21 Noroeste 0 1011.4 -1.1 70
2019-10-12 02:00:00 21.2 13 Norte 22 Norte 0 1011.8 -0.8 68
2019-10-12 01:00:00 21.3 14 Norte 30 Norte 0 1012.1 0 70
2019-10-12 00:00:00 21.5 15 Norte 26 Norte 0 1012.5 1.1 68
2019-10-11 23:00:00 22.3 18 Norte 32 Norte 0 1012.6 2 69
2019-10-11 22:00:00 22.5 17 Norte 28 Norte 0 1012.1 1.7 69
2019-10-11 21:00:00 22.6 18 Norte 35 Norte 0 1011.4 1.3 68
2019-10-11 20:00:00 22.8 18 Norte 41 Norte 0 1010.6 0.6 66
2019-10-11 19:00:00 23.3 27 Norte 45 Nordeste 0 1010.4 0.2 68
2019-10-11 18:00:00 24 37 Norte 46 Nordeste 0 1010.1 -0.8 66
2019-10-11 17:00:00 25.1 38 Norte 46 Nordeste 0 1010 -1.5 61
2019-10-11 16:00:00 25.6 33 Norte 41 Nordeste 0 1010.2 -2 57
2019-10-11 15:00:00 25.2 27 Norte 39 Nordeste 0 1010.9 -1.9 59
2019-10-11 14:00:00 25.4 31 Nordeste 41 Nordeste 0 1011.5 -1.3 56
2019-10-11 13:00:00 25.6 30 Nordeste 39 Nordeste 0 1012.2 -0.3 55
2019-10-11 12:00:00 24.9 28 Nordeste 37 Norte 0 1012.8 0.8 59
2019-10-11 11:00:00 24.6 29 Nordeste 35 Norte 0 1012.8 1.5 56
2019-10-11 10:00:00 23.6 21 Norte 30 Norte 0 1012.5 1.7 58
2019-10-11 09:00:00 21.5 12 Norte 18 Norte 0 1012 1.3 58
2019-10-11 08:00:00 20.8 12 Norte 21 Norte 0 1011.3 0.8 61
2019-10-11 07:00:00 20.4 12 Norte 17 Norte 0 1010.8 -0.2 64
2019-10-11 06:00:00 20.7 10 Norte 18 Norte 0 1010.7 -0.4 61
2019-10-11 05:00:00 19.3 12 Norte 17 Norte 0 1010.5 -0.9 66
2019-10-11 04:00:00 19.5 8 Noroeste 11 Norte 0 1011 -0.9 67
2019-10-11 03:00:00 20.6 10 Noroeste 17 Noroeste 0 1011.1 -1 64
2019-10-11 02:00:00 20.5 11 Noroeste 15 Noroeste 0 1011.4 -0.5 73
2019-10-11 01:00:00 21.6 10 Norte 24 Norte 0 1011.9 0 76
2019-10-11 00:00:00 22.1 17 Norte 24 Norte 0 1012.1 1 76
2019-10-10 23:00:00 22.3 15 Norte 26 Norte 0 1011.9 1.6 75
2019-10-10 22:00:00 22.5 19 Norte 28 Nordeste 0 1011.9 1.7 76
2019-10-10 21:00:00 22.6 19 Norte 32 Norte 0 1011.1 1.2 76
2019-10-10 20:00:00 23 20 Norte 30 Norte 0 1010.3 0.5 76
2019-10-10 19:00:00 23.4 23 Norte 35 Norte 0 1010.2 0.5 73
2019-10-10 18:00:00 23.9 27 Norte 39 Norte 0 1009.9 -0.2 71
2019-10-10 17:00:00 25.1 31 Norte 41 Norte 0 1009.8 -1 66
2019-10-10 16:00:00 25.1 33 Nordeste 41 Norte 0 1009.7 -2.1 65
2019-10-10 15:00:00 25.1 31 Norte 41 Nordeste 0 1010.1 -2.3 65
2019-10-10 14:00:00 25.5 30 Nordeste 39 Nordeste 0 1010.8 -1 63
2019-10-10 13:00:00 25.2 30 Nordeste 39 Norte 0 1011.8 0.4 64
2019-10-10 12:00:00 25.1 26 Norte 39 Nordeste 0 1012.4 1.3 66
2019-10-10 11:00:00 24.9 26 Norte 41 Norte 0 1011.8 1.2 65
2019-10-10 10:00:00 23.9 24 Norte 33 Norte 0 1011.4 1 61
2019-10-10 09:00:00 22.1 15 Norte 26 Noroeste 0 1011.1 1 62
2019-10-10 08:00:00 21.3 15 Noroeste 26 Noroeste 0 1010.6 0.4 65
2019-10-10 07:00:00 20.8 13 Norte 26 Norte 0 1010.4 0 70
2019-10-10 06:00:00 21.2 18 Norte 26 Norte 0 1010.1 -0.7 68
2019-10-10 05:00:00 21.1 16 Norte 26 Norte 0 1010.2 -1.4 69
2019-10-10 04:00:00 21.3 15 Norte 26 Norte 0 1010.4 -1.6 73
2019-10-10 03:00:00 21.2 14 Norte 28 Norte 0 1010.8 -1.5 69
2019-10-10 02:00:00 21.2 16 Norte 26 Norte 0 1011.6 -0.6 70
2019-10-10 01:00:00 22 21 Norte 33 Norte 0 1012 0.3 71
2019-10-10 00:00:00 22.2 17 Norte 30 Norte 0 1012.3 0.7 70
2019-10-09 23:00:00 22.1 15 Norte 32 Norte 0 1012.2 1.3 68
2019-10-09 22:00:00 22.2 17 Norte 28 Norte 0 1011.7 1.2 66
2019-10-09 21:00:00 22.3 14 Norte 35 Norte 0 1011.6 1.5 65
2019-10-09 20:00:00 22.6 22 Norte 37 Norte 0 1010.9 0.6 64
2019-10-09 19:00:00 23.2 29 Norte 42 Norte 0 1010.5 0 65
2019-10-09 18:00:00 24.3 32 Norte 52 Norte 0 1010.1 -0.7 58
2019-10-09 17:00:00 24.9 41 Norte 50 Nordeste 0 1010.3 -0.7 59
2019-10-09 16:00:00 25.1 41 Norte 50 Norte 0 1010.5 -1 57
2019-10-09 15:00:00 25.4 40 Norte 50 Nordeste 0 1010.8 -0.8 57
2019-10-09 14:00:00 25.6 33 Norte 55 Norte 0 1011 -0.8 55
2019-10-09 13:00:00 25.1 39 Norte 58 Norte 0 1011.5 0.4 57
2019-10-09 12:00:00 24.6 39 Norte 54 Norte 0 1011.6 0.5 59
2019-10-09 11:00:00 23.6 37 Norte 54 Norte 0 1011.8 1.1 60
2019-10-09 10:00:00 22.9 32 Norte 46 Norte 0 1011.1 0.4 63
2019-10-09 09:00:00 21.4 30 Norte 42 Norte 0 1011.1 0.5 69
2019-10-09 08:00:00 20.9 24 Norte 41 Norte 0 1010.7 0.3 69
2019-10-09 07:00:00 21.1 22 Norte 45 Norte 0 1010.7 -0.3 70
2019-10-09 06:00:00 21.1 28 Norte 46 Norte 0 1010.6 -0.4 69
2019-10-09 05:00:00 21.1 23 Norte 41 Norte 0 1010.4 -0.8 71
2019-10-09 04:00:00 21.2 26 Norte 41 Norte 0 1011 -0.7 70
2019-10-09 03:00:00 21.3 27 Norte 41 Norte 0 1011 -1.1 70
2019-10-09 02:00:00 21.3 25 Norte 41 Norte 0 1011.2 -0.6 73
2019-10-09 01:00:00 21.4 26 Norte 39 Norte 0 1011.7 -0.1 74
2019-10-09 00:00:00 21.5 24 Norte 41 Norte 0 1012.1 1.1 74
2019-10-08 23:00:00 21.6 24 Norte 42 Norte 0 1011.8 1.4 73
2019-10-08 22:00:00 21.7 27 Norte 42 Norte 0 1011.8 1.3 72
2019-10-08 21:00:00 22 29 Norte 41 Norte 0 1011 0.5 72
2019-10-08 20:00:00 22.4 24 Norte 39 Norte 0 1010.4 0.3 70
2019-10-08 19:00:00 23.4 29 Norte 42 Norte 0 1010.5 0.4 66
2019-10-08 18:00:00 24.6 25 Norte 48 Norte 0 1010.5 -0.2 63
2019-10-08 17:00:00 24.8 37 Norte 55 Norte 0 1010.1 -1.1 64
2019-10-08 16:00:00 24.9 35 Norte 48 Nordeste 0 1010.1 -1.4 63
2019-10-08 15:00:00 25.3 38 Nordeste 50 Norte 0 1010.7 -1.1 61
2019-10-08 14:00:00 25.5 41 Norte 55 Norte 0 1011.2 -0.9 60
2019-10-08 13:00:00 25.3 42 Norte 54 Norte 0 1011.5 -0.4 61
2019-10-08 12:00:00 24.9 38 Norte 55 Nordeste 0 1011.8 0.3 62
2019-10-08 11:00:00 23.6 33 Norte 48 Norte 0 1012.1 1.2 67
2019-10-08 10:00:00 23 30 Norte 45 Norte 0 1011.9 1.4 70
2019-10-08 09:00:00 21.8 26 Norte 41 Norte 0 1011.5 1.1 73
2019-10-08 08:00:00 21.3 22 Norte 39 Norte 0 1010.9 0.5 75
2019-10-08 07:00:00 21.4 23 Norte 39 Norte 0 1010.5 0 76
2019-10-08 06:00:00 21.4 19 Norte 32 Norte 0 1010.4 -0.5 76
2019-10-08 05:00:00 21.6 23 Norte 37 Norte 0 1010.4 -0.6 75
2019-10-08 04:00:00 21.8 17 Norte 39 Norte 0 1010.5 -1 75
2019-10-08 03:00:00 21.8 24 Norte 33 Norte 0 1010.9 -1.1 75
2019-10-08 02:00:00 21.8 20 Norte 41 Norte 0 1011 -0.7 75
2019-10-08 01:00:00 21.8 22 Norte 42 Norte 0 1011.5 0.1 74
2019-10-08 00:00:00 21.9 24 Norte 42 Norte 0 1012 1.2 73
2019-10-07 23:00:00 22.3 27 Norte 46 Norte 0 1011.7 1.3 73
2019-10-07 22:00:00 22.4 28 Norte 45 Norte 0 1011.4 1.2 72
2019-10-07 21:00:00 22.6 28 Norte 46 Norte 0 1010.8 0.6 72
2019-10-07 20:00:00 22.7 29 Norte 45 Norte 0 1010.4 0.1 71
2019-10-07 19:00:00 23.5 25 Norte 48 Norte 0 1010.2 -0.2 71
2019-10-07 18:00:00 24.2 36 Norte 48 Norte 0 1010.2 -0.6 68
2019-10-07 17:00:00 25 37 Norte 48 Norte 0 1010.3 -1.5 66
2019-10-07 16:00:00 25.6 37 Norte 48 Nordeste 0 1010.4 -1.9 63
2019-10-07 15:00:00 25.7 33 Norte 39 Norte 0 1010.8 -1.9 62
2019-10-07 14:00:00 25.2 30 Norte 41 Nordeste 0 1011.8 -1.1 64
2019-10-07 13:00:00 25.1 31 Norte 42 Norte 0 1012.3 -0.5 60
2019-10-07 12:00:00 25 33 Norte 41 Nordeste 0 1012.7 0.8 62
2019-10-07 11:00:00 24.4 32 Norte 39 Norte 0 1012.9 1.4 62
2019-10-07 10:00:00 23.2 28 Norte 42 Norte 0 1012.8 1.9 66
2019-10-07 09:00:00 22 21 Norte 41 Norte 0 1011.9 1.2 70
2019-10-07 08:00:00 21.7 25 Norte 45 Norte 0 1011.5 1.1 72
2019-10-07 07:00:00 21.8 26 Norte 42 Norte 0 1010.9 0.2 73
2019-10-07 06:00:00 21.8 28 Norte 45 Norte 0 1010.7 -0.4 72
2019-10-07 05:00:00 21.8 25 Norte 41 Norte 0 1010.4 -1.2 73
2019-10-07 04:00:00 21.8 25 Norte 46 Norte 0 1010.7 -1.4 72
2019-10-07 03:00:00 22 31 Norte 45 Norte 0 1011.1 -1.5 72
2019-10-07 02:00:00 22.1 28 Norte 46 Norte 0 1011.6 -1.3 72
2019-10-07 01:00:00 22.2 29 Norte 45 Norte 0 1012.1 -0.4 71
2019-10-07 00:00:00 22.2 28 Norte 42 Norte 0 1012.6 0.5 68
2019-10-06 23:00:00 22.3 30 Norte 45 Norte 0 1012.9 0.9 72
2019-10-06 22:00:00 22.5 24 Norte 46 Norte 0 1012.5 0.8 68
2019-10-06 21:00:00 22.5 27 Norte 45 Norte 0 1012.1 0.5 69
2019-10-06 20:00:00 22.8 28 Norte 46 Norte 0 1012 0.4 69
2019-10-06 19:00:00 23.3 31 Norte 54 Norte 0 1011.7 -0.1 71
2019-10-06 18:00:00 24.5 39 Norte 55 Norte 0 1011.6 -0.7 66
2019-10-06 17:00:00 24.6 36 Norte 52 Norte 0 1011.6 -1.2 59
2019-10-06 16:00:00 25.1 41 Norte 54 Norte 0 1011.8 -1.4 63
2019-10-06 15:00:00 25.8 46 Norte 55 Norte 0 1012.3 -0.9 59
2019-10-06 14:00:00 25.8 42 Norte 54 Norte 0 1012.8 0 59
2019-10-06 13:00:00 25.6 36 Norte 52 Norte 0 1013.2 0.4 59
2019-10-06 12:00:00 25.5 42 Norte 52 Norte 0 1013.2 0.9 56
2019-10-06 11:00:00 24.1 37 Norte 52 Norte 0 1012.8 1.1 61
2019-10-06 10:00:00 23.4 28 Norte 52 Norte 0 1012.8 1.6 64
2019-10-06 09:00:00 22.2 26 Norte 42 Norte 0 1012.3 0.9 71
2019-10-06 08:00:00 21.9 27 Norte 46 Norte 0 1011.7 0.5 75
2019-10-06 07:00:00 21.7 27 Norte 45 Norte 0 1011.2 -0.2 76
2019-10-06 06:00:00 21.9 28 Norte 46 Norte 0 1011.4 -0.3 77
2019-10-06 05:00:00 22 32 Norte 50 Norte 0 1011.2 -0.9 75
2019-10-06 04:00:00 21.9 31 Norte 48 Norte 0 1011.4 -0.8 77
2019-10-06 03:00:00 22.2 33 Norte 50 Norte 0 1011.7 -0.7 75
2019-10-06 02:00:00 22.3 30 Norte 46 Norte 0 1012.1 -0.4 73
2019-10-06 01:00:00 22.7 28 Norte 46 Norte 0 1012.2 0.2 69
2019-10-06 00:00:00 22.6 32 Norte 48 Norte 0 1012.4 1 71
2019-10-05 23:00:00 22.5 31 Norte 50 Norte 0 1012.5 1.7 70
2019-10-05 22:00:00 22.7 33 Norte 52 Norte 0 1012 1.4 71
2019-10-05 21:00:00 22.9 33 Norte 55 Norte 0 1011.4 1 68
2019-10-05 20:00:00 23.2 34 Norte 59 Norte 0 1010.8 0.6 71
2019-10-05 19:00:00 23.8 39 Norte 59 Norte 0 1010.6 0.2 72
2019-10-05 18:00:00 24.7 41 Norte 63 Norte 0 1010.4 0 68
2019-10-05 17:00:00 25.6 39 Norte 61 Norte 0 1010.2 -0.8 62
2019-10-05 16:00:00 25.4 43 Norte 67 Norte 0 1010.4 -1.1 65
2019-10-05 15:00:00 26.1 51 Norte 63 Norte 0 1010.4 -1.5 63
2019-10-05 14:00:00 26.8 39 Norte 61 Norte 0 1011 -0.9 58
2019-10-05 13:00:00 26 37 Norte 58 Norte 0 1011.5 0.1 63
2019-10-05 12:00:00 25.2 38 Norte 58 Norte 0 1011.9 1.1 63
2019-10-05 11:00:00 24.6 38 Norte 58 Norte 0 1011.9 1.6 67
2019-10-05 10:00:00 23.8 37 Norte 58 Norte 0 1011.4 1.5 71
2019-10-05 09:00:00 23 36 Norte 52 Norte 0 1010.8 1 75
2019-10-05 08:00:00 22.9 32 Norte 54 Norte 0 1010.3 0.6 70
2019-10-05 07:00:00 22.5 32 Norte 52 Norte 0 1009.9 0 72
2019-10-05 06:00:00 22.2 30 Norte 52 Norte 0 1009.8 -0.3 75
2019-10-05 05:00:00 22.1 30 Norte 50 Norte 0 1009.7 -0.7 74
2019-10-05 04:00:00 22.2 32 Norte 48 Norte 0 1009.9 -0.8 73
2019-10-05 03:00:00 22.2 30 Norte 50 Norte 0 1010.1 -1.1 73
2019-10-05 02:00:00 22.1 29 Norte 50 Norte 0 1010.4 -0.8 73
2019-10-05 01:00:00 22.1 28 Norte 55 Norte 0 1010.7 -0.3 74
2019-10-05 00:00:00 22.1 31 Norte 52 Norte 0 1011.2 0.6 73
2019-10-04 23:00:00 22.2 33 Norte 58 Norte 0 1011.2 0.8 73
2019-10-04 22:00:00 22.3 42 Norte 58 Norte 0 1011 0.7 71
2019-10-04 21:00:00 22.5 41 Norte 58 Norte 0 1010.6 0.3 70
2019-10-04 20:00:00 22.9 33 Norte 55 Norte 0 1010.4 0.6 70
2019-10-04 19:00:00 23.8 39 Norte 59 Norte 0 1010.3 0.2 67
2019-10-04 18:00:00 24.4 36 Norte 58 Norte 0 1010.3 -0.2 64
2019-10-04 17:00:00 25.2 33 Norte 61 Norte 0 1009.8 -1.7 62
2019-10-04 16:00:00 26.4 48 Norte 63 Norte 0 1010.1 -2.4 60
2019-10-04 15:00:00 25.9 41 Norte 65 Norte 0 1010.5 -2.1 62
2019-10-04 14:00:00 26.4 38 Norte 67 Norte 0 1011.5 -1.3 59
2019-10-04 13:00:00 25.7 41 Norte 63 Norte 0 1012.5 -0.3 62
2019-10-04 12:00:00 25.5 40 Norte 58 Norte 0 1012.6 0.3 62
2019-10-04 11:00:00 23.8 29 Norte 61 Norte 0 1012.8 0.8 69
2019-10-04 10:00:00 23.6 37 Norte 55 Norte 0 1012.8 1.2 70
2019-10-04 09:00:00 22.4 34 Norte 54 Norte 0 1012.3 0.6 75
2019-10-04 08:00:00 21.9 33 Norte 58 Norte 0 1012 0.4 77
2019-10-04 07:00:00 21.7 39 Norte 59 Norte 0 1011.6 -0.2 76
2019-10-04 06:00:00 21.8 35 Norte 59 Norte 0 1011.7 -0.5 77
2019-10-04 05:00:00 21.8 37 Norte 55 Norte 0 1011.6 -1 78
2019-10-04 04:00:00 21.8 33 Norte 50 Norte 0 1011.8 -1.5 80
2019-10-04 03:00:00 22 33 Norte 58 Norte 0 1012.2 -1.3 77
2019-10-04 02:00:00 22.2 36 Norte 50 Norte 0 1012.6 -1.1 77
2019-10-04 01:00:00 22.2 32 Norte 48 Norte 0 1013.3 0 78
2019-10-04 00:00:00 22.3 30 Norte 52 Norte 0 1013.5 0.5 77
2019-10-03 23:00:00 22.5 30 Norte 46 Norte 0 1013.7 0.8 77
2019-10-03 22:00:00 22.7 26 Norte 48 Norte 0 1013.3 0.3 76
2019-10-03 21:00:00 22.7 30 Norte 46 Norte 0 1013 0 77
2019-10-03 20:00:00 23.3 31 Norte 50 Norte 0 1012.9 -0.2 75
2019-10-03 19:00:00 23.8 35 Norte 58 Norte 0 1013 -0.5 72
2019-10-03 18:00:00 25.1 40 Norte 58 Norte 0 1013 -1 67
2019-10-03 17:00:00 25.5 42 Norte 59 Norte 0 1013.1 -1.4 67
2019-10-03 16:00:00 26.1 47 Norte 59 Norte 0 1013.5 -1.5 65
2019-10-03 15:00:00 26.5 44 Norte 58 Norte 0 1014 -1.5 63
2019-10-03 14:00:00 26.8 37 Norte 52 Norte 0 1014.5 -0.9 62
2019-10-03 13:00:00 26.3 43 Norte 55 Nordeste 0 1015 -0.3 65
2019-10-03 12:00:00 26 46 Norte 55 Norte 0 1015.5 0.6 67
2019-10-03 11:00:00 25.6 26 Norte 42 Norte 0 1015.4 1.1 68
2019-10-03 10:00:00 24.2 32 Norte 45 Norte 0 1015.3 1.3 74
2019-10-03 09:00:00 24.2 26 Norte 35 Norte 0 1014.9 1.4 64
2019-10-03 08:00:00 24.3 21 Norte 33 Norte 0 1014.3 1 53
2019-10-03 07:00:00 24.7 22 Norte 35 Norte 0 1014 0.6 54
2019-10-03 06:00:00 24.9 22 Norte 33 Norte 0 1013.5 -0.3 49
2019-10-03 05:00:00 23 20 Norte 33 Norte 0 1013.3 -0.8 64
2019-10-03 04:00:00 23.2 22 Norte 33 Norte 0 1013.4 -0.6 69
2019-10-03 03:00:00 23.9 22 Norte 39 Norte 0 1013.8 -0.4 63
2019-10-03 02:00:00 23.3 24 Norte 37 Norte 0 1014.1 0.2 66
2019-10-03 01:00:00 22.5 28 Norte 46 Norte 0 1014 0.8 85
2019-10-03 00:00:00 22.6 28 Norte 45 Norte 0 1014.2 1.5 86
2019-10-02 23:00:00 23.5 24 Norte 37 Norte 0 1013.9 1.8 77
2019-10-02 22:00:00 24.1 17 Norte 30 Norte 0 1013.2 1.1 69
2019-10-02 21:00:00 25 19 Norte 28 Norte 0 1012.7 0.4 58
2019-10-02 20:00:00 25.5 14 Norte 28 Norte 0 1012.1 -0.2 54
2019-10-02 19:00:00 26 19 Norte 33 Norte 0 1012.1 -0.2 58
2019-10-02 18:00:00 26.3 23 Norte 37 Norte 0 1012.3 -0.4 62
2019-10-02 17:00:00 26.8 31 Norte 41 Nordeste 0 1012.3 -0.5 58
2019-10-02 16:00:00 27.3 32 Norte 41 Norte 0 1012.3 -1 62
2019-10-02 15:00:00 27 30 Norte 39 Nordeste 0 1012.7 -0.7 67
2019-10-02 14:00:00 27.1 32 Norte 39 Norte 0 1012.8 -0.5 65
2019-10-02 13:00:00 25.9 32 Norte 42 Nordeste 0 1013.3 0.2 70
2019-10-02 12:00:00 27.3 31 Nordeste 39 Norte 0 1013.4 1 64
2019-10-02 11:00:00 25.5 32 Norte 37 Norte 0 1013.3 1.4 71
2019-10-02 10:00:00 24.2 27 Norte 35 Norte 0 1013.1 1.3 73
2019-10-02 09:00:00 22.4 23 Norte 33 Norte 0 1012.4 1 80
2019-10-02 08:00:00 21.9 23 Norte 33 Norte 0 1011.9 0.5 74
2019-10-02 07:00:00 22.1 21 Norte 33 Norte 0 1011.8 0.4 72
2019-10-02 06:00:00 22.3 24 Norte 35 Norte 0 1011.4 -0.5 74
2019-10-02 05:00:00 22.8 22 Norte 35 Norte 0 1011.4 -0.9 67
2019-10-02 04:00:00 22.1 24 Norte 46 Norte 0 1011.4 -1.2 80
2019-10-02 03:00:00 22.2 30 Norte 45 Norte 0 1011.9 -0.8 85
2019-10-02 02:00:00 23.1 24 Norte 37 Norte 0 1012.3 -0.3 75
2019-10-02 01:00:00 22.7 23 Norte 37 Norte 0 1012.6 0.4 82
2019-10-02 00:00:00 23 24 Norte 35 Norte 0 1012.7 1.1 82
2019-10-01 23:00:00 23.2 22 Norte 33 Norte 0 1012.6 1.3 79
2019-10-01 22:00:00 23.3 22 Norte 37 Norte 0 1012.2 1.3 81
2019-10-01 21:00:00 24.2 22 Norte 35 Norte 0 1011.6 0.6 71
2019-10-01 20:00:00 24.6 22 Norte 37 Norte 0 1011.3 0.3 70
2019-10-01 19:00:00 25.6 25 Norte 41 Norte 0 1010.9 -0.2 65
2019-10-01 18:00:00 27.3 27 Norte 39 Norte 0 1011 -0.6 57
2019-10-01 17:00:00 27.4 30 Norte 45 Norte 0 1011 -1 56
2019-10-01 16:00:00 28.1 32 Norte 48 Norte 0 1011.1 -1.4 50
2019-10-01 15:00:00 28.5 33 Norte 50 Norte 0 1011.6 -0.9 47
2019-10-01 14:00:00 27.9 32 Norte 45 Norte 0 1012 -0.5 57
2019-10-01 13:00:00 26.7 37 Norte 50 Norte 0 1012.5 0.9 61
2019-10-01 12:00:00 25.6 30 Norte 50 Norte 0 1012.5 1.6 70
2019-10-01 11:00:00 25.6 32 Norte 46 Norte 0 1012.5 2.4 70
2019-10-01 10:00:00 25 23 Norte 37 Norte 0 1011.6 1.7 65
2019-10-01 09:00:00 22.4 23 Norte 41 Norte 0 1010.9 1.3 83
2019-10-01 08:00:00 21.7 23 Norte 39 Norte 0 1010.1 1 85
2019-10-01 07:00:00 21.8 24 Norte 39 Norte 0 1009.9 0.4 85
2019-10-01 06:00:00 22 27 Norte 42 Norte 0 1009.6 -0.2 84
2019-10-01 05:00:00 22.8 25 Norte 35 Norte 0 1009.1 -1.2 66
2019-10-01 04:00:00 26.7 18 Norte 33 Norte 0 1009.5 -1 21
2019-10-01 03:00:00 26.5 18 Norte 35 Norte 0 1009.8 -0.8 22
2019-10-01 02:00:00 27 21 Norte 33 Norte 0 1010.3 -0.1 21
2019-10-01 01:00:00 25.4 21 Norte 30 Norte 0 1010.5 0.4 40
2019-10-01 00:00:00 23.5 21 Norte 35 Norte 0 1010.6 1 65
2019-09-30 23:00:00 23 25 Norte 37 Norte 0 1010.4 1.2 73
2019-09-30 22:00:00 22.8 26 Norte 48 Norte 0 1010.1 1.8 78
2019-09-30 21:00:00 23 33 Norte 48 Norte 0 1009.6 1.5 78
2019-09-30 20:00:00 23.6 35 Norte 50 Norte 0 1009.2 0.9 75
2019-09-30 19:00:00 24.5 38 Norte 58 Norte 0 1008.3 -0.3 71
2019-09-30 18:00:00 26 36 Norte 54 Norte 0 1008.1 -0.8 65
2019-09-30 17:00:00 26.9 37 Norte 54 Norte 0 1008.3 -1 63
2019-09-30 16:00:00 26.4 40 Norte 52 Norte 0 1008.6 -1.1 67
2019-09-30 15:00:00 27.2 41 Norte 52 Norte 0 1008.9 -1.2 65
2019-09-30 14:00:00 26.8 40 Norte 48 Norte 0 1009.3 -0.6 66
2019-09-30 13:00:00 27.1 38 Norte 46 Norte 0 1009.7 0.2 64
2019-09-30 12:00:00 26.6 32 Norte 42 Norte 0 1010.1 0.9 64
2019-09-30 11:00:00 25.5 28 Norte 42 Norte 0 1009.9 1.3 66
2019-09-30 10:00:00 23.7 26 Norte 41 Norte 0 1009.5 1.4 72
2019-09-30 09:00:00 22.7 23 Norte 37 Norte 0 1009.2 1 72
2019-09-30 08:00:00 21.7 22 Norte 37 Norte 0 1008.6 0.6 73
2019-09-30 07:00:00 21.8 26 Norte 39 Norte 0 1008.1 -0.5 74
2019-09-30 06:00:00 21.6 21 Norte 35 Norte 0 1008.2 -0.8 73
2019-09-30 05:00:00 21.7 23 Norte 37 Norte 0 1008 -1.7 73
2019-09-30 04:00:00 21.4 24 Norte 39 Norte 0 1008.6 -2 81
2019-09-30 03:00:00 21.5 25 Norte 39 Norte 0 1009 -1.4 81
2019-09-30 02:00:00 21.8 28 Norte 41 Norte 0 1009.7 -0.5 80
2019-09-30 01:00:00 21.9 31 Norte 46 Norte 0 1010.6 0.6 80
2019-09-30 00:00:00 22.1 28 Norte 48 Norte 0 1010.4 0.9 79
2019-09-29 23:00:00 22.2 32 Norte 55 Norte 0 1010.2 1.3 79
2019-09-29 22:00:00 22.5 28 Norte 46 Norte 0 1010 1.2 79
2019-09-29 21:00:00 22.7 28 Norte 45 Norte 0 1009.5 0.6 78
2019-09-29 20:00:00 23 32 Norte 46 Norte 0 1008.9 -0.6 78
2019-09-29 19:00:00 23.7 28 Norte 48 Norte 0 1008.8 -1.1 76
2019-09-29 18:00:00 24.4 26 Norte 42 Norte 0 1008.9 -1.9 74
2019-09-29 17:00:00 25.5 34 Norte 48 Norte 0 1009.5 -1.8 68
2019-09-29 16:00:00 25.4 31 Norte 46 Norte 0 1009.9 -1.9 68
2019-09-29 15:00:00 25.8 39 Norte 48 Norte 0 1010.8 -1.7 66
2019-09-29 14:00:00 25.9 35 Norte 46 Norte 0 1011.3 -0.9 64
2019-09-29 13:00:00 25.6 35 Norte 48 Norte 0 1011.8 -0.1 64
2019-09-29 12:00:00 24.9 35 Norte 50 Norte 0 1012.5 1.1 66
2019-09-29 11:00:00 24.2 32 Norte 46 Norte 0 1012.2 1.1 67
2019-09-29 10:00:00 22.9 31 Norte 46 Norte 0 1011.9 0.9 72
2019-09-29 09:00:00 22 28 Norte 45 Norte 0 1011.4 0.9 75
2019-09-29 08:00:00 21.8 28 Norte 41 Norte 0 1011.1 0.4 76
2019-09-29 07:00:00 21.9 30 Norte 45 Norte 0 1011 0 76
2019-09-29 06:00:00 21.9 31 Norte 45 Norte 0 1010.5 -1.1 75
2019-09-29 05:00:00 21.8 28 Norte 46 Norte 0 1010.7 -1.3 77
2019-09-29 04:00:00 21.8 28 Norte 50 Norte 0 1011 -1.3 77
2019-09-29 03:00:00 21.8 28 Norte 46 Norte 0 1011.6 -1 77
2019-09-29 02:00:00 21.9 28 Norte 41 Norte 0 1012 -0.8 78
2019-09-29 01:00:00 21.9 23 Norte 45 Norte 0 1012.3 -0.2 78
2019-09-29 00:00:00 21.9 30 Norte 42 Norte 0 1012.6 0.7 77
2019-09-28 23:00:00 22 25 Norte 42 Norte 0 1012.8 1.2 76
2019-09-28 22:00:00 22.1 26 Norte 42 Norte 0 1012.5 0.6 75
2019-09-28 21:00:00 22.4 26 Norte 45 Norte 0 1011.9 -0.3 74
2019-09-28 20:00:00 22.8 30 Norte 46 Norte 0 1011.6 -0.7 70
2019-09-28 19:00:00 23.4 27 Norte 42 Norte 0 1011.9 -0.4 71
2019-09-28 18:00:00 24.7 33 Norte 46 Norte 0 1012.2 -0.4 65
2019-09-28 17:00:00 25.2 37 Norte 48 Norte 0 1012.3 -0.9 62
2019-09-28 16:00:00 25.7 37 Norte 48 Norte 0 1012.3 -1.8 60
2019-09-28 15:00:00 25.7 40 Norte 52 Norte 0 1012.6 -1.8 61
2019-09-28 14:00:00 25.4 32 Norte 48 Norte 0 1013.2 -0.9 61
2019-09-28 13:00:00 25.9 36 Norte 50 Norte 0 1014.1 0.3 59
2019-09-28 12:00:00 24.5 33 Norte 46 Norte 0 1014.4 1.5 63
2019-09-28 11:00:00 24.2 33 Norte 46 Norte 0 1014.1 1.5 67
2019-09-28 10:00:00 23.5 24 Norte 42 Norte 0 1013.8 1.5 71
2019-09-28 09:00:00 21.9 28 Norte 41 Norte 0 1012.9 0.7 74
2019-09-28 08:00:00 21.3 27 Norte 45 Norte 0 1012.6 0.3 78
2019-09-28 07:00:00 21.2 23 Norte 41 Norte 0 1012.3 -0.4 75
2019-09-28 06:00:00 21.3 24 Norte 41 Norte 0 1012.2 -0.6 78
2019-09-28 05:00:00 21.5 22 Norte 39 Norte 0 1012.3 -1 79
2019-09-28 04:00:00 21.6 24 Norte 41 Norte 0 1012.7 -1 78
2019-09-28 03:00:00 21.7 28 Norte 42 Norte 0 1012.8 -1.5 78
2019-09-28 02:00:00 21.8 24 Norte 42 Norte 0 1013.3 -1 77
2019-09-28 01:00:00 22.1 24 Norte 35 Norte 0 1013.7 -0.3 76
2019-09-28 00:00:00 21.9 26 Norte 39 Norte 0 1014.3 1 77
2019-09-27 23:00:00 22.1 26 Norte 41 Norte 0 1014.3 1.4 78
2019-09-27 22:00:00 22.3 23 Norte 39 Norte 0 1014 1.3 72
2019-09-27 21:00:00 22.6 25 Norte 41 Norte 0 1013.3 0.8 72
2019-09-27 20:00:00 22.9 25 Norte 45 Norte 0 1012.9 0.1 74
2019-09-27 19:00:00 24 31 Norte 55 Norte 0 1012.7 -0.3 64
2019-09-27 18:00:00 24.8 41 Norte 55 Norte 0 1012.5 -0.7 62
2019-09-27 17:00:00 25.5 42 Norte 54 Norte 0 1012.8 -0.7 61
2019-09-27 16:00:00 25.8 41 Norte 55 Nordeste 0 1013 -1.1 60
2019-09-27 15:00:00 26.1 42 Norte 55 Norte 0 1013.2 -1.3 60
2019-09-27 14:00:00 26 45 Norte 54 Norte 0 1013.5 -0.9 60
2019-09-27 13:00:00 25.9 36 Norte 52 Norte 0 1014.1 -0.2 58
2019-09-27 12:00:00 25.4 39 Norte 52 Norte 0 1014.5 0.6 61
2019-09-27 11:00:00 24.4 31 Norte 52 Norte 0 1014.4 0.8 64
2019-09-27 10:00:00 23.9 32 Norte 46 Norte 0 1014.3 0.9 66
2019-09-27 09:00:00 22.6 27 Norte 41 Norte 0 1013.9 0.8 71
2019-09-27 08:00:00 22 26 Norte 45 Norte 0 1013.6 0.4 75
2019-09-27 07:00:00 22.2 24 Norte 42 Norte 0 1013.4 0 74
2019-09-27 06:00:00 22.3 26 Norte 37 Norte 0 1013.1 -0.4 73
2019-09-27 05:00:00 22.2 21 Norte 42 Norte 0 1013.2 -0.8 71
2019-09-27 04:00:00 22.4 27 Norte 42 Norte 0 1013.4 -0.8 72
2019-09-27 03:00:00 22.4 28 Norte 45 Norte 0 1013.5 -1 74
2019-09-27 02:00:00 22.4 30 Norte 45 Norte 0 1014 -0.7 75
2019-09-27 01:00:00 22.5 26 Norte 41 Norte 0 1014.2 0 73
2019-09-27 00:00:00 22.6 26 Norte 39 Norte 0 1014.5 0.9 70
2019-09-26 23:00:00 22.7 28 Norte 42 Norte 0 1014.7 1.7 71
2019-09-26 22:00:00 22.9 27 Norte 39 Norte 0 1014.2 1.5 72
2019-09-26 21:00:00 22.9 26 Norte 45 Norte 0 1013.6 1.1 69
2019-09-26 20:00:00 23 30 Norte 48 Norte 0 1013 0.7 69
2019-09-26 19:00:00 24 35 Norte 50 Norte 0 1012.7 0.4 64
2019-09-26 18:00:00 24.7 39 Norte 52 Norte 0 1012.5 -0.6 62
2019-09-26 17:00:00 25.5 41 Norte 54 Norte 0 1012.3 -1 63
2019-09-26 16:00:00 25.8 42 Norte 52 Nordeste 0 1012.3 -1.6 62
2019-09-26 15:00:00 25.9 42 Norte 55 Norte 0 1013.1 -1 58
2019-09-26 14:00:00 26 39 Norte 54 Norte 0 1013.3 -1 59
2019-09-26 13:00:00 25.9 39 Norte 55 Norte 0 1013.9 0 62
2019-09-26 12:00:00 24.7 31 Norte 46 Norte 0 1014.1 1 67
2019-09-26 11:00:00 24.9 33 Norte 48 Norte 0 1014.3 1.8 60
2019-09-26 10:00:00 23.6 28 Norte 42 Norte 0 1013.9 2 71
2019-09-26 09:00:00 22.8 25 Norte 39 Norte 0 1013.1 1.5 75
2019-09-26 08:00:00 22.3 24 Norte 39 Norte 0 1012.5 1 76
2019-09-26 07:00:00 22 23 Norte 37 Norte 0 1011.9 0.2 75
2019-09-26 06:00:00 22.3 25 Norte 42 Norte 0 1011.6 -0.1 76
2019-09-26 05:00:00 22.3 25 Norte 39 Norte 0 1011.5 -0.7 77
2019-09-26 04:00:00 22.2 22 Norte 39 Norte 0 1011.7 -0.9 74
2019-09-26 03:00:00 22.1 21 Norte 37 Norte 0 1011.7 -1.1 73
2019-09-26 02:00:00 22.2 19 Norte 33 Norte 0 1012.2 -0.8 74
2019-09-26 01:00:00 22.4 21 Norte 41 Norte 0 1012.6 0.1 77
2019-09-26 00:00:00 22.5 25 Norte 45 Norte 0 1012.8 0.9 77
2019-09-25 23:00:00 22.6 27 Norte 46 Norte 0 1013 1.8 76
2019-09-25 22:00:00 22.9 31 Norte 42 Norte 0 1012.5 1.4 75
2019-09-25 21:00:00 23 26 Norte 46 Norte 0 1011.9 0.8 71
2019-09-25 20:00:00 23.2 32 Norte 58 Norte 0 1011.2 0 71
2019-09-25 19:00:00 23.9 36 Norte 55 Norte 0 1011.1 -0.5 68
2019-09-25 18:00:00 25.1 42 Norte 54 Norte 0 1011.1 -1 62
2019-09-25 17:00:00 25.9 32 Norte 54 Norte 0 1011.2 -1.2 61
2019-09-25 16:00:00 26.4 44 Norte 59 Norte 0 1011.6 -1.5 56
2019-09-25 15:00:00 26.4 44 Norte 59 Norte 0 1012.1 -1.4 57
2019-09-25 14:00:00 26.3 35 Norte 65 Norte 0 1012.4 -1.4 58
2019-09-25 13:00:00 26 43 Norte 58 Norte 0 1013.1 -0.5 58
2019-09-25 12:00:00 25.6 32 Norte 50 Norte 0 1013.5 0.2 58
2019-09-25 11:00:00 24.1 36 Norte 50 Norte 0 1013.8 0.7 62
2019-09-25 10:00:00 23.4 33 Norte 48 Norte 0 1013.6 0.8 65
2019-09-25 09:00:00 22.3 27 Norte 42 Norte 0 1013.3 0.7 70
2019-09-25 08:00:00 21.5 25 Norte 41 Norte 0 1013.1 0.8 74
2019-09-25 07:00:00 21.5 26 Norte 42 Norte 0 1012.8 0.3 74
2019-09-25 06:00:00 21.5 23 Norte 39 Norte 0 1012.6 -0.4 72
2019-09-25 05:00:00 21.5 25 Norte 42 Norte 0 1012.3 -1.2 73
2019-09-25 04:00:00 21.6 25 Norte 41 Norte 0 1012.5 -1.6 72
2019-09-25 03:00:00 21.9 23 Norte 41 Norte 0 1013 -1.3 69
2019-09-25 02:00:00 21.9 28 Norte 45 Norte 0 1013.5 -1 69
2019-09-25 01:00:00 22 24 Norte 45 Norte 0 1014.1 -0.2 67
2019-09-25 00:00:00 22 26 Norte 41 Norte 0 1014.3 0.6 67
2019-09-24 23:00:00 22.1 22 Norte 41 Norte 0 1014.5 1 67
2019-09-24 22:00:00 22.1 24 Norte 42 Norte 0 1014.3 1.1 67
2019-09-24 21:00:00 22.4 30 Norte 42 Norte 0 1013.7 0.7 66
2019-09-24 20:00:00 22.8 29 Norte 48 Norte 0 1013.5 0.1 64
2019-09-24 19:00:00 23.8 28 Norte 54 Norte 0 1013.2 -0.1 63
2019-09-24 18:00:00 24.5 34 Norte 58 Norte 0 1013 -1.1 60
2019-09-24 17:00:00 25.5 35 Norte 61 Norte 0 1013.4 -1.2 55
2019-09-24 16:00:00 25.9 41 Norte 59 Norte 0 1013.3 -2 57
2019-09-24 15:00:00 26.1 46 Norte 59 Norte 0 1014.1 -1.3 57
2019-09-24 14:00:00 26.2 45 Norte 61 Norte 0 1014.6 -0.8 53
2019-09-24 13:00:00 25.9 44 Norte 61 Norte 0 1015.3 0 58
2019-09-24 12:00:00 25.5 39 Norte 59 Norte 0 1015.4 0.5 58
2019-09-24 11:00:00 24.6 31 Norte 52 Norte 0 1015.4 1.1 61
2019-09-24 10:00:00 23.6 26 Norte 41 Norte 0 1015.3 1.7 66
2019-09-24 09:00:00 22 21 Norte 37 Norte 0 1014.9 1.4 74
2019-09-24 08:00:00 21.9 23 Norte 39 Norte 0 1014.3 0.8 74
2019-09-24 07:00:00 22 26 Norte 42 Norte 0 1013.6 0 76
2019-09-24 06:00:00 21.8 22 Norte 37 Norte 0 1013.5 -0.5 78
2019-09-24 05:00:00 22.1 26 Norte 37 Norte 0 1013.5 -1 74
2019-09-24 04:00:00 21.6 23 Norte 32 Norte 0 1013.6 -1.3 75
2019-09-24 03:00:00 21.9 22 Norte 35 Norte 0 1014 -1.5 74
2019-09-24 02:00:00 21.8 18 Norte 32 Norte 0 1014.5 -1 73
2019-09-24 01:00:00 22 19 Norte 37 Norte 0 1014.9 -0.1 72
2019-09-24 00:00:00 22.2 23 Norte 37 Norte 0 1015.5 1.1 70
2019-09-23 23:00:00 22.3 21 Norte 39 Norte 0 1015.5 1.4 71
2019-09-23 22:00:00 22.7 24 Norte 42 Norte 0 1015 1.2 72
2019-09-23 21:00:00 22.9 22 Norte 45 Norte 0 1014.4 0.2 71
2019-09-23 20:00:00 23.4 26 Norte 42 Norte 0 1014.1 0.1 66
2019-09-23 19:00:00 24 31 Norte 48 Norte 0 1013.8 -0.1 62
2019-09-23 18:00:00 24.7 33 Norte 54 Norte 0 1014.2 0.5 61
2019-09-23 17:00:00 25.5 39 Norte 55 Norte 0 1014 -0.2 60
2019-09-23 16:00:00 26.1 45 Norte 55 Norte 0 1013.9 -1 58
2019-09-23 15:00:00 26.1 39 Norte 55 Norte 0 1013.7 -1.4 57
2019-09-23 14:00:00 26.5 28 Norte 48 Norte 0 1014.2 -0.4 55
2019-09-23 13:00:00 25.8 34 Norte 52 Norte 0 1014.9 0.6 57
2019-09-23 12:00:00 25.9 39 Norte 48 Nordeste 0 1015.1 1.3 59
2019-09-23 11:00:00 25.1 40 Norte 52 Nordeste 0 1014.6 1.1 63
2019-09-23 10:00:00 23.7 21 Norte 41 Norte 0 1014.3 1.4 69
2019-09-23 09:00:00 22.6 26 Norte 41 Norte 0 1013.8 1.1 70
2019-09-23 08:00:00 21.6 19 Norte 33 Norte 0 1013.5 1 78
2019-09-23 07:00:00 21.9 26 Norte 39 Norte 0 1012.9 0.4 78
2019-09-23 06:00:00 22 23 Norte 33 Norte 0 1012.7 -0.2 82
2019-09-23 05:00:00 22 19 Norte 37 Norte 0 1012.5 -0.8 83
2019-09-23 04:00:00 22.2 21 Norte 35 Norte 0 1012.5 -1.2 85
2019-09-23 03:00:00 22.4 20 Norte 32 Norte 0 1012.9 -1.2 85
2019-09-23 02:00:00 22.5 18 Norte 33 Norte 0 1013.3 -0.8 85
2019-09-23 01:00:00 22.6 18 Norte 33 Norte 0 1013.7 0 83
2019-09-23 00:00:00 22.7 19 Norte 33 Norte 0 1014.1 1.1 84
2019-09-22 23:00:00 23.1 21 Norte 33 Norte 0 1014.1 1.7 83
2019-09-22 22:00:00 22.8 23 Norte 41 Norte 0 1013.7 2.1 84
2019-09-22 21:00:00 23.2 26 Norte 42 Norte 0 1013 1.6 86
2019-09-22 20:00:00 24 27 Norte 46 Norte 0 1012.4 1 83
2019-09-22 19:00:00 25.5 26 Norte 42 Norte 0 1011.6 -0.1 74
2019-09-22 18:00:00 26.6 36 Norte 45 Norte 0 1011.4 -0.5 68
2019-09-22 17:00:00 27.9 30 Norte 42 Nordeste 0 1011.4 -0.9 62
2019-09-22 16:00:00 27.5 33 Norte 48 Nordeste 0 1011.7 -1 65
2019-09-22 15:00:00 27.5 37 Norte 46 Norte 0 1011.9 -0.9 64
2019-09-22 14:00:00 27.3 34 Nordeste 46 Nordeste 0 1012.3 -0.7 63
2019-09-22 13:00:00 27.2 37 Norte 46 Nordeste 0 1012.7 0 64
2019-09-22 12:00:00 27.3 33 Norte 41 Nordeste 0 1012.8 0.4 59
2019-09-22 11:00:00 26.1 33 Norte 39 Norte 0 1013 0.5 63
2019-09-22 10:00:00 25.2 26 Nordeste 33 Nordeste 0 1012.7 0.6 64
2019-09-22 09:00:00 23.8 15 Norte 22 Norte 0 1012.4 0.7 68
2019-09-22 08:00:00 21.2 11 Norte 17 Norte 0 1012.5 1.1 74
2019-09-22 07:00:00 21.6 10 Norte 21 Norte 0 1012.1 0.8 75
2019-09-22 06:00:00 21.2 12 Norte 18 Norte 0 1011.7 0.1 79
2019-09-22 05:00:00 20.8 6 Noroeste 11 Noroeste 0 1011.4 -0.6 76
2019-09-22 04:00:00 21.5 5 Norte 22 Norte 0 1011.3 -0.9 77
2019-09-22 03:00:00 22 17 Norte 28 Norte 0 1011.6 -1 74
2019-09-22 02:00:00 22.1 17 Norte 24 Norte 0 1012 -0.4 78
2019-09-22 01:00:00 22.3 17 Norte 24 Norte 0 1012.2 0.1 81
2019-09-22 00:00:00 22.5 9 Norte 21 Norte 0 1012.6 1.2 78
2019-09-21 23:00:00 22.8 13 Norte 22 Norte 0 1012.4 1.6 75
2019-09-21 22:00:00 23 15 Norte 24 Norte 0 1012.1 1.7 73
2019-09-21 21:00:00 23.4 16 Norte 24 Norte 0 1011.4 1 70
2019-09-21 20:00:00 24 17 Norte 35 Nordeste 0 1010.8 0.5 66
2019-09-21 19:00:00 24.6 30 Nordeste 42 Norte 0 1010.4 -0.2 70
2019-09-21 18:00:00 25.4 36 Nordeste 42 Nordeste 0 1010.4 -0.6 68
2019-09-21 17:00:00 25.8 33 Nordeste 39 Nordeste 0 1010.3 -1 66
2019-09-21 16:00:00 26 30 Nordeste 39 Nordeste 0 1010.6 -0.8 65
2019-09-21 15:00:00 26.1 28 Nordeste 41 Nordeste 0 1011 -0.9 64
2019-09-21 14:00:00 26.1 31 Norte 42 Norte 0 1011.3 -0.5 63
2019-09-21 13:00:00 26.3 32 Nordeste 41 Norte 0 1011.4 0 61
2019-09-21 12:00:00 25.7 31 Norte 41 Norte 0 1011.9 1 63
2019-09-21 11:00:00 24.9 32 Nordeste 39 Norte 0 1011.8 1.3 65
2019-09-21 10:00:00 24.1 26 Norte 32 Norte 0 1011.4 1.2 67
2019-09-21 09:00:00 22 13 Norte 21 Norte 0 1010.9 0.9 69
2019-09-21 08:00:00 19.9 9 Norte 13 Norte 0 1010.5 0.7 74
2019-09-21 07:00:00 20.9 7 Noroeste 15 Norte 0 1010.2 0.4 74
2019-09-21 06:00:00 21.3 10 Noroeste 21 Noroeste 0 1010 -0.2 73
2019-09-21 05:00:00 21.3 15 Noroeste 24 Noroeste 0 1009.8 -0.6 73
2019-09-21 04:00:00 21.3 17 Noroeste 22 Noroeste 0 1009.8 -1.1 74
2019-09-21 03:00:00 21.3 11 Norte 22 Noroeste 0 1010.2 -1.3 75
2019-09-21 02:00:00 21.6 15 Norte 21 Norte 0 1010.4 -1.2 75
2019-09-21 01:00:00 21.9 13 Norte 21 Norte 0 1010.9 -0.5 75
2019-09-21 00:00:00 21.9 10 Norte 22 Norte 0 1011.5 0.8 75
2019-09-20 23:00:00 22.3 15 Norte 26 Norte 0 1011.6 1.2 79
2019-09-20 22:00:00 22.5 15 Norte 32 Norte 0 1011.4 1.3 75
2019-09-20 21:00:00 22.7 20 Norte 33 Norte 0 1010.7 1.2 77
2019-09-20 20:00:00 23.3 23 Norte 35 Norte 0 1010.4 0.8 73
2019-09-20 19:00:00 24.7 27 Norte 42 Norte 0 1010.1 0.3 62
2019-09-20 18:00:00 25.4 28 Norte 50 Norte 0 1009.5 -1.2 60
2019-09-20 17:00:00 26 42 Norte 52 Norte 0 1009.6 -1.8 58
2019-09-20 16:00:00 25.7 43 Norte 50 Norte 0 1009.8 -2.1 60
2019-09-20 15:00:00 26.2 40 Nordeste 46 Norte 0 1010.7 -1.7 58
2019-09-20 14:00:00 26 36 Nordeste 42 Nordeste 0 1011.4 -1.1 57
2019-09-20 13:00:00 25.6 32 Norte 45 Norte 0 1011.9 -0.9 60
2019-09-20 12:00:00 25.5 35 Nordeste 42 Nordeste 0 1012.4 0.9 58
2019-09-20 11:00:00 25 27 Nordeste 35 Nordeste 0 1012.5 1.9 61
2019-09-20 10:00:00 23.5 18 Norte 32 Norte 0 1012.8 2.5 66
2019-09-20 09:00:00 22.2 17 Norte 30 Norte 0 1011.5 1.4 69
2019-09-20 08:00:00 22 19 Norte 37 Norte 0 1010.6 0.3 68
2019-09-20 07:00:00 22.2 20 Norte 37 Norte 0 1010.3 -0.5 69
2019-09-20 06:00:00 21.9 24 Norte 39 Norte 0 1010.1 -1.1 70
2019-09-20 05:00:00 21.2 16 Norte 39 Norte 0 1010.3 -1.6 73
2019-09-20 04:00:00 21.6 20 Norte 39 Norte 0 1010.8 -1.2 72
2019-09-20 03:00:00 21.9 26 Norte 42 Norte 0 1011.2 -0.7 74
2019-09-20 02:00:00 21.6 26 Norte 39 Noroeste 0 1011.9 -0.2 75
2019-09-20 01:00:00 21.7 23 Norte 37 Norte 0 1012 0.1 78
2019-09-20 00:00:00 22 22 Norte 39 Norte 0 1011.9 0.8 75
2019-09-19 23:00:00 22.3 23 Norte 37 Norte 0 1012.1 1.6 74
2019-09-19 22:00:00 22.5 22 Norte 39 Norte 0 1011.9 1.2 74
2019-09-19 21:00:00 22.9 26 Norte 41 Norte 0 1011.1 0.6 72
2019-09-19 20:00:00 23.1 26 Norte 45 Norte 0 1010.5 0.1 73
2019-09-19 19:00:00 24.1 34 Norte 48 Norte 0 1010.7 0 72
2019-09-19 18:00:00 24.9 39 Norte 52 Norte 0 1010.5 -0.6 66
2019-09-19 17:00:00 25.9 40 Norte 54 Norte 0 1010.4 -1.2 64
2019-09-19 16:00:00 26.4 40 Norte 54 Norte 0 1010.7 -1.1 57
2019-09-19 15:00:00 26.7 39 Norte 54 Norte 0 1011.1 -1 56
2019-09-19 14:00:00 26.8 42 Norte 54 Nordeste 0 1011.6 -0.6 58
2019-09-19 13:00:00 26.2 43 Norte 55 Norte 0 1011.8 -0.2 57
2019-09-19 12:00:00 25.1 34 Norte 50 Norte 0 1012.1 0.7 59
2019-09-19 11:00:00 24.2 31 Norte 45 Norte 0 1012.2 1.1 64
2019-09-19 10:00:00 23.3 33 Norte 45 Norte 0 1012 1.1 68
2019-09-19 09:00:00 22.2 21 Norte 35 Norte 0 1011.4 0.6 75
2019-09-19 08:00:00 21.3 21 Norte 35 Norte 0 1011.1 0.6 77
2019-09-19 07:00:00 21.6 21 Norte 33 Norte 0 1010.9 0.1 76
2019-09-19 06:00:00 21.7 21 Norte 41 Norte 0 1010.8 -0.4 74
2019-09-19 05:00:00 21.6 22 Norte 37 Norte 0 1010.5 -1.3 77
2019-09-19 04:00:00 21.5 21 Norte 33 Nordeste 0 1010.8 -0.9 78
2019-09-19 03:00:00 21.6 19 Norte 37 Norte 0 1011.2 -0.9 80
2019-09-19 02:00:00 21.7 19 Norte 32 Norte 0 1011.8 -0.6 79
2019-09-19 01:00:00 21.9 21 Norte 37 Norte 0 1011.7 -0.3 79
2019-09-19 00:00:00 22.2 22 Norte 35 Norte 0 1012.1 0.6 79
2019-09-18 23:00:00 22.2 21 Norte 33 Norte 0 1012.4 1.2 78
2019-09-18 22:00:00 22.3 21 Norte 33 Norte 0 1012 1 77
2019-09-18 21:00:00 22.5 21 Norte 39 Norte 0 1011.5 0.6 76
2019-09-18 20:00:00 22.9 28 Norte 41 Norte 0 1011.2 0.2 72
2019-09-18 19:00:00 23.9 28 Norte 41 Nordeste 0 1011 0 67
2019-09-18 18:00:00 24.6 26 Norte 42 Norte 0 1010.9 -0.4 64
2019-09-18 17:00:00 25.4 34 Norte 45 Norte 0 1011 -0.7 64
2019-09-18 16:00:00 25.7 36 Norte 46 Nordeste 0 1011 -0.8 63
2019-09-18 15:00:00 25.9 36 Norte 48 Norte 0 1011.3 -0.8 60
2019-09-18 14:00:00 25.8 37 Norte 50 Norte 0 1011.7 -0.3 61
2019-09-18 13:00:00 25.6 37 Norte 50 Norte 0 1011.8 0.2 59
2019-09-18 12:00:00 24.9 35 Norte 48 Norte 0 1012.1 0.8 61
2019-09-18 11:00:00 24.5 37 Norte 46 Nordeste 0 1012 0.9 63
2019-09-18 10:00:00 23.6 30 Norte 42 Norte 0 1011.6 0.8 64
2019-09-18 09:00:00 22.5 21 Norte 30 Norte 0 1011.3 1 68
2019-09-18 08:00:00 21.4 17 Norte 32 Norte 0 1011.1 1.1 75
2019-09-18 07:00:00 21.5 19 Norte 33 Norte 0 1010.8 0.9 76
2019-09-18 06:00:00 21.7 21 Norte 35 Norte 0 1010.3 -0.1 75
2019-09-18 05:00:00 21.6 22 Norte 35 Norte 0 1010 -1 77
2019-09-18 04:00:00 21.7 23 Norte 39 Norte 0 1009.9 -1.4 79
2019-09-18 03:00:00 21.9 20 Norte 35 Norte 0 1010.4 -1.4 80
2019-09-18 02:00:00 22.1 21 Norte 37 Norte 0 1011 -0.7 79
2019-09-18 01:00:00 22.2 22 Norte 32 Norte 0 1011.3 -0.3 78
2019-09-18 00:00:00 22.2 23 Norte 35 Norte 0 1011.8 0.7 76
2019-09-17 23:00:00 22.2 20 Norte 33 Norte 0 1011.7 1.2 79
2019-09-17 22:00:00 22.2 19 Norte 37 Norte 0 1011.6 0.9 77
2019-09-17 21:00:00 22.3 21 Norte 39 Norte 0 1011.1 0.5 78
2019-09-17 20:00:00 22.7 26 Norte 41 Norte 0 1010.5 0 75